sensor_id;sensor_type;location;lat;lon;timestamp;P1;durP1;ratioP1;P2;durP2;ratioP2
77046;SDS011;65977;56.380;44.022;2023-03-20T00:02:03;9.63;;;6.18;;
77046;SDS011;65977;56.380;44.022;2023-03-20T00:04:32;9.10;;;5.63;;
77046;SDS011;65977;56.380;44.022;2023-03-20T00:06:59;13.65;;;6.00;;
77046;SDS011;65977;56.380;44.022;2023-03-20T00:09:27;10.93;;;5.72;;
77046;SDS011;65977;56.380;44.022;2023-03-20T00:11:54;8.77;;;5.15;;
77046;SDS011;65977;56.380;44.022;2023-03-20T00:14:21;8.30;;;5.15;;
77046;SDS011;65977;56.380;44.022;2023-03-20T00:16:50;14.15;;;6.47;;
77046;SDS011;65977;56.380;44.022;2023-03-20T00:19:19;13.35;;;6.55;;
77046;SDS011;65977;56.380;44.022;2023-03-20T00:21:54;12.20;;;6.13;;
77046;SDS011;65977;56.380;44.022;2023-03-20T00:24:22;10.40;;;5.95;;
77046;SDS011;65977;56.380;44.022;2023-03-20T00:26:50;14.55;;;6.63;;
77046;SDS011;65977;56.380;44.022;2023-03-20T00:31:47;11.50;;;5.30;;
77046;SDS011;65977;56.380;44.022;2023-03-20T00:34:16;15.68;;;6.00;;
77046;SDS011;65977;56.380;44.022;2023-03-20T00:36:45;14.57;;;5.15;;
77046;SDS011;65977;56.380;44.022;2023-03-20T00:39:12;16.08;;;6.10;;
77046;SDS011;65977;56.380;44.022;2023-03-20T00:41:43;21.40;;;6.30;;
77046;SDS011;65977;56.380;44.022;2023-03-20T00:44:27;13.32;;;5.88;;
77046;SDS011;65977;56.380;44.022;2023-03-20T00:46:58;15.10;;;6.38;;
77046;SDS011;65977;56.380;44.022;2023-03-20T00:49:31;9.98;;;6.05;;
77046;SDS011;65977;56.380;44.022;2023-03-20T00:52:01;8.25;;;5.22;;
77046;SDS011;65977;56.380;44.022;2023-03-20T00:54:29;13.07;;;5.13;;
77046;SDS011;65977;56.380;44.022;2023-03-20T00:57:02;12.45;;;5.32;;
77046;SDS011;65977;56.380;44.022;2023-03-20T00:59:32;11.43;;;5.72;;
77046;SDS011;65977;56.380;44.022;2023-03-20T01:02:04;13.10;;;6.68;;
77046;SDS011;65977;56.380;44.022;2023-03-20T01:04:36;13.65;;;6.35;;
77046;SDS011;65977;56.380;44.022;2023-03-20T01:07:08;14.80;;;7.25;;
77046;SDS011;65977;56.380;44.022;2023-03-20T01:09:38;12.60;;;5.38;;
77046;SDS011;65977;56.380;44.022;2023-03-20T01:12:05;10.32;;;5.82;;
77046;SDS011;65977;56.380;44.022;2023-03-20T01:14:33;15.40;;;5.22;;
77046;SDS011;65977;56.380;44.022;2023-03-20T01:17:00;13.50;;;5.60;;
77046;SDS011;65977;56.380;44.022;2023-03-20T01:19:27;9.10;;;4.65;;
77046;SDS011;65977;56.380;44.022;2023-03-20T01:21:54;14.38;;;4.88;;
77046;SDS011;65977;56.380;44.022;2023-03-20T01:24:22;14.18;;;5.47;;
77046;SDS011;65977;56.380;44.022;2023-03-20T01:26:49;6.40;;;4.38;;
77046;SDS011;65977;56.380;44.022;2023-03-20T01:29:19;10.45;;;5.18;;
77046;SDS011;65977;56.380;44.022;2023-03-20T01:31:49;13.57;;;5.70;;
77046;SDS011;65977;56.380;44.022;2023-03-20T01:34:17;9.48;;;4.63;;
77046;SDS011;65977;56.380;44.022;2023-03-20T01:36:49;17.65;;;5.95;;
77046;SDS011;65977;56.380;44.022;2023-03-20T01:39:22;11.40;;;6.28;;
77046;SDS011;65977;56.380;44.022;2023-03-20T01:41:57;8.77;;;5.72;;
77046;SDS011;65977;56.380;44.022;2023-03-20T01:44:29;14.35;;;5.93;;
77046;SDS011;65977;56.380;44.022;2023-03-20T01:46:59;12.38;;;5.10;;
77046;SDS011;65977;56.380;44.022;2023-03-20T01:51:55;15.75;;;7.25;;
77046;SDS011;65977;56.380;44.022;2023-03-20T01:59:34;22.60;;;6.25;;
77046;SDS011;65977;56.380;44.022;2023-03-20T02:02:06;14.32;;;6.07;;
77046;SDS011;65977;56.380;44.022;2023-03-20T02:04:35;14.52;;;5.97;;
77046;SDS011;65977;56.380;44.022;2023-03-20T02:07:06;18.75;;;5.47;;
77046;SDS011;65977;56.380;44.022;2023-03-20T02:09:36;17.20;;;5.20;;
77046;SDS011;65977;56.380;44.022;2023-03-20T02:12:03;11.25;;;5.00;;
77046;SDS011;65977;56.380;44.022;2023-03-20T02:14:30;12.55;;;5.70;;
77046;SDS011;65977;56.380;44.022;2023-03-20T02:16:58;9.38;;;4.60;;
77046;SDS011;65977;56.380;44.022;2023-03-20T02:36:25;12.88;;;5.68;;
77046;SDS011;65977;56.380;44.022;2023-03-20T02:39:24;9.00;;;5.13;;
77046;SDS011;65977;56.380;44.022;2023-03-20T02:42:55;7.00;;;5.18;;
77046;SDS011;65977;56.380;44.022;2023-03-20T02:45:59;11.20;;;5.65;;
77046;SDS011;65977;56.380;44.022;2023-03-20T03:01:27;8.68;;;5.97;;
77046;SDS011;65977;56.380;44.022;2023-03-20T03:04:00;9.05;;;4.35;;
77046;SDS011;65977;56.380;44.022;2023-03-20T03:06:33;9.15;;;5.07;;
77046;SDS011;65977;56.380;44.022;2023-03-20T03:11:31;11.40;;;5.80;;
77046;SDS011;65977;56.380;44.022;2023-03-20T03:14:02;8.85;;;4.82;;
77046;SDS011;65977;56.380;44.022;2023-03-20T03:16:34;12.85;;;4.72;;
77046;SDS011;65977;56.380;44.022;2023-03-20T03:19:12;7.20;;;3.70;;
77046;SDS011;65977;56.380;44.022;2023-03-20T03:21:42;6.80;;;4.78;;
77046;SDS011;65977;56.380;44.022;2023-03-20T03:24:32;6.57;;;4.93;;
77046;SDS011;65977;56.380;44.022;2023-03-20T03:27:11;7.78;;;4.95;;
77046;SDS011;65977;56.380;44.022;2023-03-20T03:30:01;7.82;;;4.82;;
77046;SDS011;65977;56.380;44.022;2023-03-20T03:33:04;7.55;;;4.53;;
77046;SDS011;65977;56.380;44.022;2023-03-20T03:35:32;11.43;;;5.90;;
77046;SDS011;65977;56.380;44.022;2023-03-20T03:48:51;11.43;;;6.57;;
77046;SDS011;65977;56.380;44.022;2023-03-20T03:51:25;9.52;;;6.40;;
77046;SDS011;65977;56.380;44.022;2023-03-20T03:54:00;9.73;;;5.68;;
77046;SDS011;65977;56.380;44.022;2023-03-20T03:56:31;15.68;;;6.88;;
77046;SDS011;65977;56.380;44.022;2023-03-20T03:59:03;15.65;;;5.55;;
77046;SDS011;65977;56.380;44.022;2023-03-20T04:01:34;10.65;;;6.43;;
77046;SDS011;65977;56.380;44.022;2023-03-20T04:04:03;10.38;;;6.57;;
77046;SDS011;65977;56.380;44.022;2023-03-20T04:06:35;7.90;;;6.00;;
77046;SDS011;65977;56.380;44.022;2023-03-20T04:09:02;8.85;;;6.35;;
77046;SDS011;65977;56.380;44.022;2023-03-20T04:11:29;10.55;;;6.63;;
77046;SDS011;65977;56.380;44.022;2023-03-20T04:13:56;9.32;;;5.95;;
77046;SDS011;65977;56.380;44.022;2023-03-20T04:16:23;9.48;;;5.90;;
77046;SDS011;65977;56.380;44.022;2023-03-20T04:18:51;10.15;;;7.05;;
77046;SDS011;65977;56.380;44.022;2023-03-20T04:21:18;11.52;;;7.53;;
77046;SDS011;65977;56.380;44.022;2023-03-20T04:23:45;10.32;;;6.95;;
77046;SDS011;65977;56.380;44.022;2023-03-20T04:26:12;11.43;;;6.88;;
77046;SDS011;65977;56.380;44.022;2023-03-20T04:28:40;13.15;;;7.82;;
77046;SDS011;65977;56.380;44.022;2023-03-20T04:31:07;11.35;;;7.28;;
77046;SDS011;65977;56.380;44.022;2023-03-20T04:33:34;12.32;;;7.97;;
77046;SDS011;65977;56.380;44.022;2023-03-20T04:36:01;14.35;;;8.63;;
77046;SDS011;65977;56.380;44.022;2023-03-20T04:38:29;16.45;;;9.40;;
77046;SDS011;65977;56.380;44.022;2023-03-20T04:40:56;15.40;;;9.43;;
77046;SDS011;65977;56.380;44.022;2023-03-20T04:43:23;17.00;;;9.60;;
77046;SDS011;65977;56.380;44.022;2023-03-20T04:45:50;15.35;;;10.48;;
77046;SDS011;65977;56.380;44.022;2023-03-20T04:48:17;18.42;;;10.60;;
77046;SDS011;65977;56.380;44.022;2023-03-20T04:50:45;15.18;;;10.18;;
77046;SDS011;65977;56.380;44.022;2023-03-20T04:53:14;15.43;;;10.20;;
77046;SDS011;65977;56.380;44.022;2023-03-20T04:55:41;14.35;;;7.57;;
77046;SDS011;65977;56.380;44.022;2023-03-20T04:58:09;16.17;;;9.82;;
77046;SDS011;65977;56.380;44.022;2023-03-20T05:00:36;15.23;;;10.65;;
77046;SDS011;65977;56.380;44.022;2023-03-20T05:03:03;16.50;;;10.13;;
77046;SDS011;65977;56.380;44.022;2023-03-20T05:05:30;17.08;;;10.00;;
77046;SDS011;65977;56.380;44.022;2023-03-20T05:07:58;13.18;;;9.13;;
77046;SDS011;65977;56.380;44.022;2023-03-20T05:10:25;15.85;;;10.15;;
77046;SDS011;65977;56.380;44.022;2023-03-20T05:12:52;16.40;;;10.10;;
77046;SDS011;65977;56.380;44.022;2023-03-20T05:15:19;16.60;;;10.82;;
77046;SDS011;65977;56.380;44.022;2023-03-20T05:17:47;15.30;;;9.10;;
77046;SDS011;65977;56.380;44.022;2023-03-20T05:20:17;16.63;;;8.68;;
77046;SDS011;65977;56.380;44.022;2023-03-20T05:22:47;17.58;;;9.73;;
77046;SDS011;65977;56.380;44.022;2023-03-20T05:25:14;13.30;;;8.25;;
77046;SDS011;65977;56.380;44.022;2023-03-20T05:27:42;13.30;;;7.60;;
77046;SDS011;65977;56.380;44.022;2023-03-20T05:30:12;17.80;;;10.02;;
77046;SDS011;65977;56.380;44.022;2023-03-20T05:32:39;14.73;;;8.77;;
77046;SDS011;65977;56.380;44.022;2023-03-20T05:35:08;15.18;;;8.93;;
77046;SDS011;65977;56.380;44.022;2023-03-20T05:37:35;14.75;;;9.13;;
77046;SDS011;65977;56.380;44.022;2023-03-20T05:40:02;15.38;;;8.63;;
77046;SDS011;65977;56.380;44.022;2023-03-20T05:42:30;13.73;;;8.15;;
77046;SDS011;65977;56.380;44.022;2023-03-20T05:44:57;15.48;;;8.73;;
77046;SDS011;65977;56.380;44.022;2023-03-20T05:47:24;13.70;;;8.80;;
77046;SDS011;65977;56.380;44.022;2023-03-20T05:49:51;13.73;;;8.25;;
77046;SDS011;65977;56.380;44.022;2023-03-20T05:52:19;12.93;;;9.02;;
77046;SDS011;65977;56.380;44.022;2023-03-20T05:54:46;21.52;;;9.90;;
77046;SDS011;65977;56.380;44.022;2023-03-20T05:57:13;16.52;;;8.25;;
77046;SDS011;65977;56.380;44.022;2023-03-20T05:59:40;20.95;;;8.88;;
77046;SDS011;65977;56.380;44.022;2023-03-20T06:02:07;14.93;;;9.90;;
77046;SDS011;65977;56.380;44.022;2023-03-20T06:04:35;16.73;;;8.68;;
77046;SDS011;65977;56.380;44.022;2023-03-20T06:07:05;18.58;;;9.15;;
77046;SDS011;65977;56.380;44.022;2023-03-20T06:09:32;15.45;;;8.48;;
77046;SDS011;65977;56.380;44.022;2023-03-20T06:12:00;13.05;;;7.38;;
77046;SDS011;65977;56.380;44.022;2023-03-20T06:14:27;14.93;;;7.95;;
77046;SDS011;65977;56.380;44.022;2023-03-20T06:16:55;12.68;;;9.00;;
77046;SDS011;65977;56.380;44.022;2023-03-20T06:19:26;12.90;;;6.82;;
77046;SDS011;65977;56.380;44.022;2023-03-20T06:21:53;12.77;;;6.88;;
77046;SDS011;65977;56.380;44.022;2023-03-20T06:24:21;12.55;;;7.22;;
77046;SDS011;65977;56.380;44.022;2023-03-20T06:26:48;12.65;;;6.45;;
77046;SDS011;65977;56.380;44.022;2023-03-20T06:29:16;12.63;;;5.28;;
77046;SDS011;65977;56.380;44.022;2023-03-20T06:31:43;9.82;;;5.18;;
77046;SDS011;65977;56.380;44.022;2023-03-20T06:34:11;8.07;;;5.63;;
77046;SDS011;65977;56.380;44.022;2023-03-20T06:36:39;8.07;;;4.85;;
77046;SDS011;65977;56.380;44.022;2023-03-20T06:39:10;10.70;;;6.88;;
77046;SDS011;65977;56.380;44.022;2023-03-20T06:41:37;10.07;;;6.90;;
77046;SDS011;65977;56.380;44.022;2023-03-20T06:44:04;12.93;;;7.78;;
77046;SDS011;65977;56.380;44.022;2023-03-20T06:46:32;10.40;;;5.82;;
77046;SDS011;65977;56.380;44.022;2023-03-20T06:48:59;9.88;;;6.93;;
77046;SDS011;65977;56.380;44.022;2023-03-20T06:51:26;8.70;;;6.30;;
77046;SDS011;65977;56.380;44.022;2023-03-20T06:53:53;14.45;;;7.45;;
77046;SDS011;65977;56.380;44.022;2023-03-20T06:56:21;15.07;;;6.63;;
77046;SDS011;65977;56.380;44.022;2023-03-20T06:58:49;13.90;;;7.45;;
77046;SDS011;65977;56.380;44.022;2023-03-20T07:01:16;13.77;;;6.95;;
77046;SDS011;65977;56.380;44.022;2023-03-20T07:03:47;11.23;;;7.75;;
77046;SDS011;65977;56.380;44.022;2023-03-20T07:06:14;12.00;;;7.20;;
77046;SDS011;65977;56.380;44.022;2023-03-20T07:08:41;13.18;;;7.72;;
77046;SDS011;65977;56.380;44.022;2023-03-20T07:11:08;13.07;;;8.70;;
77046;SDS011;65977;56.380;44.022;2023-03-20T07:13:35;13.02;;;7.28;;
77046;SDS011;65977;56.380;44.022;2023-03-20T07:16:03;12.40;;;8.20;;
77046;SDS011;65977;56.380;44.022;2023-03-20T07:18:32;12.07;;;7.95;;
77046;SDS011;65977;56.380;44.022;2023-03-20T07:21:00;13.10;;;7.88;;
77046;SDS011;65977;56.380;44.022;2023-03-20T07:23:29;15.43;;;8.20;;
77046;SDS011;65977;56.380;44.022;2023-03-20T07:25:57;12.13;;;8.23;;
77046;SDS011;65977;56.380;44.022;2023-03-20T07:28:24;11.82;;;8.93;;
77046;SDS011;65977;56.380;44.022;2023-03-20T07:30:53;12.63;;;8.65;;
77046;SDS011;65977;56.380;44.022;2023-03-20T07:33:20;12.95;;;7.63;;
77046;SDS011;65977;56.380;44.022;2023-03-20T07:35:50;13.05;;;9.02;;
77046;SDS011;65977;56.380;44.022;2023-03-20T07:38:19;10.65;;;7.82;;
77046;SDS011;65977;56.380;44.022;2023-03-20T07:40:47;15.55;;;9.00;;
77046;SDS011;65977;56.380;44.022;2023-03-20T07:43:15;15.82;;;10.50;;
77046;SDS011;65977;56.380;44.022;2023-03-20T07:45:43;21.45;;;14.60;;
77046;SDS011;65977;56.380;44.022;2023-03-20T07:48:10;16.05;;;10.80;;
77046;SDS011;65977;56.380;44.022;2023-03-20T07:50:38;20.30;;;10.50;;
77046;SDS011;65977;56.380;44.022;2023-03-20T07:53:05;14.15;;;9.57;;
77046;SDS011;65977;56.380;44.022;2023-03-20T07:55:33;12.25;;;8.77;;
77046;SDS011;65977;56.380;44.022;2023-03-20T07:58:00;14.73;;;9.00;;
77046;SDS011;65977;56.380;44.022;2023-03-20T08:00:27;12.20;;;9.55;;
77046;SDS011;65977;56.380;44.022;2023-03-20T08:02:55;11.35;;;7.45;;
77046;SDS011;65977;56.380;44.022;2023-03-20T08:05:22;23.58;;;11.02;;
77046;SDS011;65977;56.380;44.022;2023-03-20T08:07:50;15.77;;;8.65;;
77046;SDS011;65977;56.380;44.022;2023-03-20T08:10:17;16.50;;;10.23;;
77046;SDS011;65977;56.380;44.022;2023-03-20T08:12:44;17.75;;;9.93;;
77046;SDS011;65977;56.380;44.022;2023-03-20T08:15:12;15.20;;;10.20;;
77046;SDS011;65977;56.380;44.022;2023-03-20T08:17:42;23.20;;;9.60;;
77046;SDS011;65977;56.380;44.022;2023-03-20T08:20:11;14.65;;;9.45;;
77046;SDS011;65977;56.380;44.022;2023-03-20T08:22:39;17.95;;;9.57;;
77046;SDS011;65977;56.380;44.022;2023-03-20T08:25:08;13.35;;;9.48;;
77046;SDS011;65977;56.380;44.022;2023-03-20T08:27:36;13.52;;;9.27;;
77046;SDS011;65977;56.380;44.022;2023-03-20T08:30:04;10.43;;;8.25;;
77046;SDS011;65977;56.380;44.022;2023-03-20T08:32:32;17.00;;;8.30;;
77046;SDS011;65977;56.380;44.022;2023-03-20T08:34:59;14.07;;;7.72;;
77046;SDS011;65977;56.380;44.022;2023-03-20T08:37:28;12.55;;;7.43;;
77046;SDS011;65977;56.380;44.022;2023-03-20T08:39:55;9.38;;;5.35;;
77046;SDS011;65977;56.380;44.022;2023-03-20T08:42:22;6.90;;;5.40;;
77046;SDS011;65977;56.380;44.022;2023-03-20T08:44:49;10.40;;;6.03;;
77046;SDS011;65977;56.380;44.022;2023-03-20T08:47:16;13.00;;;5.70;;
77046;SDS011;65977;56.380;44.022;2023-03-20T08:49:43;9.15;;;5.38;;
77046;SDS011;65977;56.380;44.022;2023-03-20T08:52:10;8.10;;;5.50;;
77046;SDS011;65977;56.380;44.022;2023-03-20T08:54:37;8.77;;;4.10;;
77046;SDS011;65977;56.380;44.022;2023-03-20T08:57:04;9.32;;;5.10;;
77046;SDS011;65977;56.380;44.022;2023-03-20T08:59:31;14.18;;;5.35;;
77046;SDS011;65977;56.380;44.022;2023-03-20T09:01:58;11.05;;;4.75;;
77046;SDS011;65977;56.380;44.022;2023-03-20T09:04:26;7.78;;;3.95;;
77046;SDS011;65977;56.380;44.022;2023-03-20T09:06:53;11.95;;;5.13;;
77046;SDS011;65977;56.380;44.022;2023-03-20T09:09:20;7.93;;;5.22;;
77046;SDS011;65977;56.380;44.022;2023-03-20T09:11:58;8.88;;;5.28;;
77046;SDS011;65977;56.380;44.022;2023-03-20T09:14:27;8.50;;;5.50;;
77046;SDS011;65977;56.380;44.022;2023-03-20T09:16:54;9.55;;;5.65;;
77046;SDS011;65977;56.380;44.022;2023-03-20T09:19:21;12.07;;;5.88;;
77046;SDS011;65977;56.380;44.022;2023-03-20T09:21:48;7.88;;;5.50;;
77046;SDS011;65977;56.380;44.022;2023-03-20T09:24:15;9.27;;;5.40;;
77046;SDS011;65977;56.380;44.022;2023-03-20T09:26:42;8.23;;;5.30;;
77046;SDS011;65977;56.380;44.022;2023-03-20T09:29:09;8.25;;;5.07;;
77046;SDS011;65977;56.380;44.022;2023-03-20T09:31:36;8.13;;;4.95;;
77046;SDS011;65977;56.380;44.022;2023-03-20T09:34:03;8.02;;;5.35;;
77046;SDS011;65977;56.380;44.022;2023-03-20T09:36:31;9.68;;;5.97;;
77046;SDS011;65977;56.380;44.022;2023-03-20T09:38:59;9.73;;;5.63;;
77046;SDS011;65977;56.380;44.022;2023-03-20T09:41:26;10.50;;;6.70;;
77046;SDS011;65977;56.380;44.022;2023-03-20T09:46:32;10.00;;;6.75;;
77046;SDS011;65977;56.380;44.022;2023-03-20T09:54:48;12.02;;;6.25;;
77046;SDS011;65977;56.380;44.022;2023-03-20T09:57:21;8.48;;;4.80;;
77046;SDS011;65977;56.380;44.022;2023-03-20T10:00:00;7.78;;;5.40;;
77046;SDS011;65977;56.380;44.022;2023-03-20T10:02:44;7.90;;;5.82;;
77046;SDS011;65977;56.380;44.022;2023-03-20T10:08:32;11.30;;;5.88;;
77046;SDS011;65977;56.380;44.022;2023-03-20T10:19:35;13.60;;;6.72;;
77046;SDS011;65977;56.380;44.022;2023-03-20T10:22:14;9.13;;;6.32;;
77046;SDS011;65977;56.380;44.022;2023-03-20T10:24:48;9.52;;;7.28;;
77046;SDS011;65977;56.380;44.022;2023-03-20T10:27:20;11.68;;;6.75;;
77046;SDS011;65977;56.380;44.022;2023-03-20T10:29:58;10.05;;;6.53;;
77046;SDS011;65977;56.380;44.022;2023-03-20T10:38:09;9.73;;;7.63;;
77046;SDS011;65977;56.380;44.022;2023-03-20T10:40:41;9.20;;;6.75;;
77046;SDS011;65977;56.380;44.022;2023-03-20T10:48:23;9.07;;;6.15;;
77046;SDS011;65977;56.380;44.022;2023-03-20T10:50:55;10.55;;;6.18;;
77046;SDS011;65977;56.380;44.022;2023-03-20T10:56:35;11.27;;;6.78;;
77046;SDS011;65977;56.380;44.022;2023-03-20T10:59:09;9.20;;;7.10;;
77046;SDS011;65977;56.380;44.022;2023-03-20T11:01:41;9.55;;;6.25;;
77046;SDS011;65977;56.380;44.022;2023-03-20T11:04:08;8.98;;;6.78;;
77046;SDS011;65977;56.380;44.022;2023-03-20T11:06:40;11.65;;;7.25;;
77046;SDS011;65977;56.380;44.022;2023-03-20T11:09:18;8.98;;;6.55;;
77046;SDS011;65977;56.380;44.022;2023-03-20T11:11:47;11.27;;;6.95;;
77046;SDS011;65977;56.380;44.022;2023-03-20T11:14:19;9.82;;;6.95;;
77046;SDS011;65977;56.380;44.022;2023-03-20T11:16:52;11.10;;;6.57;;
77046;SDS011;65977;56.380;44.022;2023-03-20T11:19:22;10.18;;;5.93;;
77046;SDS011;65977;56.380;44.022;2023-03-20T11:21:50;9.88;;;7.07;;
77046;SDS011;65977;56.380;44.022;2023-03-20T11:30:06;12.10;;;6.97;;
77046;SDS011;65977;56.380;44.022;2023-03-20T11:32:46;12.48;;;7.55;;
77046;SDS011;65977;56.380;44.022;2023-03-20T11:37:53;10.95;;;8.20;;
77046;SDS011;65977;56.380;44.022;2023-03-20T11:45:36;13.80;;;9.13;;
77046;SDS011;65977;56.380;44.022;2023-03-20T11:48:16;13.85;;;9.70;;
77046;SDS011;65977;56.380;44.022;2023-03-20T11:50:47;15.55;;;10.65;;
77046;SDS011;65977;56.380;44.022;2023-03-20T11:53:28;16.85;;;9.57;;
77046;SDS011;65977;56.380;44.022;2023-03-20T11:58:30;15.55;;;9.88;;
77046;SDS011;65977;56.380;44.022;2023-03-20T12:00:58;9.90;;;7.05;;
77046;SDS011;65977;56.380;44.022;2023-03-20T12:06:15;11.40;;;7.65;;
77046;SDS011;65977;56.380;44.022;2023-03-20T12:08:45;13.15;;;7.97;;
77046;SDS011;65977;56.380;44.022;2023-03-20T12:11:23;11.68;;;6.40;;
77046;SDS011;65977;56.380;44.022;2023-03-20T12:25:21;12.48;;;7.32;;
77046;SDS011;65977;56.380;44.022;2023-03-20T12:28:00;9.82;;;6.82;;
77046;SDS011;65977;56.380;44.022;2023-03-20T12:30:33;11.13;;;6.72;;
77046;SDS011;65977;56.380;44.022;2023-03-20T12:33:21;12.25;;;8.05;;
77046;SDS011;65977;56.380;44.022;2023-03-20T12:36:04;14.15;;;6.28;;
77046;SDS011;65977;56.380;44.022;2023-03-20T12:38:39;12.80;;;7.10;;
77046;SDS011;65977;56.380;44.022;2023-03-20T12:41:14;11.60;;;8.63;;
77046;SDS011;65977;56.380;44.022;2023-03-20T12:57:38;11.77;;;7.15;;
77046;SDS011;65977;56.380;44.022;2023-03-20T13:08:51;11.68;;;7.82;;
77046;SDS011;65977;56.380;44.022;2023-03-20T13:22:47;13.48;;;8.15;;
77046;SDS011;65977;56.380;44.022;2023-03-20T13:28:17;12.00;;;8.35;;
77046;SDS011;65977;56.380;44.022;2023-03-20T13:31:24;14.80;;;8.77;;
77046;SDS011;65977;56.380;44.022;2023-03-20T13:34:01;13.65;;;8.20;;
77046;SDS011;65977;56.380;44.022;2023-03-20T13:39:34;17.00;;;9.93;;
77046;SDS011;65977;56.380;44.022;2023-03-20T13:42:11;10.32;;;7.93;;
77046;SDS011;65977;56.380;44.022;2023-03-20T13:44:43;12.30;;;7.82;;
77046;SDS011;65977;56.380;44.022;2023-03-20T13:47:13;13.30;;;8.10;;
77046;SDS011;65977;56.380;44.022;2023-03-20T13:50:08;12.43;;;7.75;;
77046;SDS011;65977;56.380;44.022;2023-03-20T13:53:02;14.68;;;9.32;;
77046;SDS011;65977;56.380;44.022;2023-03-20T13:55:53;13.68;;;8.95;;
77046;SDS011;65977;56.380;44.022;2023-03-20T13:58:27;13.82;;;7.22;;
77046;SDS011;65977;56.380;44.022;2023-03-20T14:01:46;16.08;;;8.77;;
77046;SDS011;65977;56.380;44.022;2023-03-20T14:04:36;11.82;;;7.82;;
77046;SDS011;65977;56.380;44.022;2023-03-20T14:09:53;13.68;;;9.32;;
77046;SDS011;65977;56.380;44.022;2023-03-20T14:12:25;12.20;;;8.52;;
77046;SDS011;65977;56.380;44.022;2023-03-20T14:14:56;12.38;;;8.55;;
77046;SDS011;65977;56.380;44.022;2023-03-20T14:17:26;14.85;;;8.73;;
77046;SDS011;65977;56.380;44.022;2023-03-20T14:19:56;14.88;;;9.15;;
77046;SDS011;65977;56.380;44.022;2023-03-20T14:22:35;14.93;;;8.48;;
77046;SDS011;65977;56.380;44.022;2023-03-20T14:25:14;15.70;;;8.15;;
77046;SDS011;65977;56.380;44.022;2023-03-20T14:30:47;13.45;;;8.43;;
77046;SDS011;65977;56.380;44.022;2023-03-20T14:35:47;15.88;;;10.27;;
77046;SDS011;65977;56.380;44.022;2023-03-20T14:41:32;14.95;;;7.75;;
77046;SDS011;65977;56.380;44.022;2023-03-20T14:57:46;14.27;;;7.93;;
77046;SDS011;65977;56.380;44.022;2023-03-20T15:02:56;17.38;;;9.57;;
77046;SDS011;65977;56.380;44.022;2023-03-20T15:05:31;13.95;;;8.57;;
77046;SDS011;65977;56.380;44.022;2023-03-20T15:08:04;13.05;;;8.60;;
77046;SDS011;65977;56.380;44.022;2023-03-20T15:10:42;13.05;;;9.48;;
77046;SDS011;65977;56.380;44.022;2023-03-20T15:13:13;16.58;;;10.10;;
77046;SDS011;65977;56.380;44.022;2023-03-20T15:15:54;15.32;;;8.88;;
77046;SDS011;65977;56.380;44.022;2023-03-20T15:18:24;22.13;;;10.18;;
77046;SDS011;65977;56.380;44.022;2023-03-20T15:20:55;15.60;;;9.55;;
77046;SDS011;65977;56.380;44.022;2023-03-20T15:23:23;22.15;;;13.55;;
77046;SDS011;65977;56.380;44.022;2023-03-20T15:25:51;25.55;;;15.07;;
77046;SDS011;65977;56.380;44.022;2023-03-20T15:28:25;23.98;;;13.32;;
77046;SDS011;65977;56.380;44.022;2023-03-20T15:30:57;26.20;;;14.15;;
77046;SDS011;65977;56.380;44.022;2023-03-20T15:33:26;28.40;;;15.98;;
77046;SDS011;65977;56.380;44.022;2023-03-20T15:35:56;27.95;;;17.45;;
77046;SDS011;65977;56.380;44.022;2023-03-20T15:38:27;27.02;;;16.17;;
77046;SDS011;65977;56.380;44.022;2023-03-20T15:40:58;27.30;;;17.25;;
77046;SDS011;65977;56.380;44.022;2023-03-20T15:43:25;27.33;;;17.10;;
77046;SDS011;65977;56.380;44.022;2023-03-20T15:45:53;32.50;;;18.02;;
77046;SDS011;65977;56.380;44.022;2023-03-20T15:48:46;27.90;;;16.60;;
77046;SDS011;65977;56.380;44.022;2023-03-20T15:51:17;28.42;;;15.80;;
77046;SDS011;65977;56.380;44.022;2023-03-20T15:53:46;21.58;;;12.43;;
77046;SDS011;65977;56.380;44.022;2023-03-20T15:56:15;23.63;;;14.45;;
77046;SDS011;65977;56.380;44.022;2023-03-20T15:58:46;25.25;;;12.80;;
77046;SDS011;65977;56.380;44.022;2023-03-20T16:01:18;23.90;;;13.75;;
77046;SDS011;65977;56.380;44.022;2023-03-20T16:03:47;21.42;;;13.57;;
77046;SDS011;65977;56.380;44.022;2023-03-20T16:06:16;21.00;;;11.27;;
77046;SDS011;65977;56.380;44.022;2023-03-20T16:08:54;23.80;;;12.10;;
77046;SDS011;65977;56.380;44.022;2023-03-20T16:11:24;19.23;;;12.13;;
77046;SDS011;65977;56.380;44.022;2023-03-20T16:13:51;18.77;;;11.00;;
77046;SDS011;65977;56.380;44.022;2023-03-20T16:16:20;18.48;;;9.85;;
77046;SDS011;65977;56.380;44.022;2023-03-20T16:18:49;20.63;;;10.60;;
77046;SDS011;65977;56.380;44.022;2023-03-20T16:21:27;18.27;;;10.70;;
77046;SDS011;65977;56.380;44.022;2023-03-20T16:24:04;14.20;;;10.30;;
77046;SDS011;65977;56.380;44.022;2023-03-20T16:26:39;19.15;;;11.55;;
77046;SDS011;65977;56.380;44.022;2023-03-20T16:29:12;18.77;;;9.32;;
77046;SDS011;65977;56.380;44.022;2023-03-20T16:31:44;18.85;;;10.02;;
77046;SDS011;65977;56.380;44.022;2023-03-20T16:34:21;19.33;;;11.45;;
77046;SDS011;65977;56.380;44.022;2023-03-20T16:36:53;17.30;;;10.85;;
77046;SDS011;65977;56.380;44.022;2023-03-20T16:39:24;16.27;;;9.73;;
77046;SDS011;65977;56.380;44.022;2023-03-20T16:44:45;24.30;;;11.65;;
77046;SDS011;65977;56.380;44.022;2023-03-20T16:52:11;24.88;;;12.70;;
77046;SDS011;65977;56.380;44.022;2023-03-20T16:54:40;23.10;;;12.05;;
77046;SDS011;65977;56.380;44.022;2023-03-20T16:57:14;25.92;;;13.52;;
77046;SDS011;65977;56.380;44.022;2023-03-20T16:59:43;20.63;;;12.88;;
77046;SDS011;65977;56.380;44.022;2023-03-20T17:02:16;23.25;;;13.27;;
77046;SDS011;65977;56.380;44.022;2023-03-20T17:04:51;27.02;;;14.82;;
77046;SDS011;65977;56.380;44.022;2023-03-20T17:07:22;46.83;;;27.63;;
77046;SDS011;65977;56.380;44.022;2023-03-20T17:09:54;22.80;;;13.95;;
77046;SDS011;65977;56.380;44.022;2023-03-20T17:12:30;28.67;;;13.77;;
77046;SDS011;65977;56.380;44.022;2023-03-20T17:14:58;20.90;;;13.02;;
77046;SDS011;65977;56.380;44.022;2023-03-20T17:17:26;19.77;;;13.50;;
77046;SDS011;65977;56.380;44.022;2023-03-20T17:19:53;26.00;;;13.70;;
77046;SDS011;65977;56.380;44.022;2023-03-20T17:22:21;26.88;;;13.63;;
77046;SDS011;65977;56.380;44.022;2023-03-20T17:24:51;19.80;;;11.95;;
77046;SDS011;65977;56.380;44.022;2023-03-20T17:27:19;20.75;;;14.02;;
77046;SDS011;65977;56.380;44.022;2023-03-20T17:29:46;27.05;;;14.10;;
77046;SDS011;65977;56.380;44.022;2023-03-20T17:32:18;24.52;;;13.73;;
77046;SDS011;65977;56.380;44.022;2023-03-20T17:34:49;20.42;;;13.38;;
77046;SDS011;65977;56.380;44.022;2023-03-20T17:37:21;25.42;;;13.82;;
77046;SDS011;65977;56.380;44.022;2023-03-20T17:39:55;24.15;;;14.15;;
77046;SDS011;65977;56.380;44.022;2023-03-20T17:42:24;23.70;;;13.98;;
77046;SDS011;65977;56.380;44.022;2023-03-20T17:44:52;27.02;;;14.50;;
77046;SDS011;65977;56.380;44.022;2023-03-20T17:47:20;26.30;;;15.00;;
77046;SDS011;65977;56.380;44.022;2023-03-20T17:49:49;25.38;;;14.95;;
77046;SDS011;65977;56.380;44.022;2023-03-20T17:52:23;25.67;;;15.85;;
77046;SDS011;65977;56.380;44.022;2023-03-20T17:54:52;22.45;;;13.90;;
77046;SDS011;65977;56.380;44.022;2023-03-20T17:57:30;27.35;;;15.35;;